sensor_id;sensor_type;location;lat;lon;timestamp;P1;durP1;ratioP1;P2;durP2;ratioP2
62582;SDS011;48641;51.676;5.808;2024-01-10T00:01:23;5.60;;;2.38;;
62582;SDS011;48641;51.676;5.808;2024-01-10T00:03:53;5.97;;;2.55;;
62582;SDS011;48641;51.676;5.808;2024-01-10T00:06:19;6.32;;;2.30;;
62582;SDS011;48641;51.676;5.808;2024-01-10T00:08:45;5.53;;;2.20;;
62582;SDS011;48641;51.676;5.808;2024-01-10T00:11:10;7.35;;;2.40;;
62582;SDS011;48641;51.676;5.808;2024-01-10T00:13:36;5.80;;;2.50;;
62582;SDS011;48641;51.676;5.808;2024-01-10T00:16:02;4.53;;;1.85;;
62582;SDS011;48641;51.676;5.808;2024-01-10T00:18:28;6.70;;;2.38;;
62582;SDS011;48641;51.676;5.808;2024-01-10T00:20:53;6.10;;;2.10;;
62582;SDS011;48641;51.676;5.808;2024-01-10T00:23:19;5.22;;;2.03;;
62582;SDS011;48641;51.676;5.808;2024-01-10T00:25:46;5.63;;;2.25;;
62582;SDS011;48641;51.676;5.808;2024-01-10T00:28:12;5.32;;;2.10;;
62582;SDS011;48641;51.676;5.808;2024-01-10T00:30:38;6.80;;;2.30;;
62582;SDS011;48641;51.676;5.808;2024-01-10T00:33:04;5.82;;;2.00;;
62582;SDS011;48641;51.676;5.808;2024-01-10T00:35:30;6.03;;;2.15;;
62582;SDS011;48641;51.676;5.808;2024-01-10T00:37:56;5.65;;;2.10;;
62582;SDS011;48641;51.676;5.808;2024-01-10T00:40:22;5.25;;;2.10;;
62582;SDS011;48641;51.676;5.808;2024-01-10T00:42:50;5.32;;;2.20;;
62582;SDS011;48641;51.676;5.808;2024-01-10T00:45:16;5.85;;;2.10;;
62582;SDS011;48641;51.676;5.808;2024-01-10T00:47:42;5.28;;;1.92;;
62582;SDS011;48641;51.676;5.808;2024-01-10T00:50:08;5.97;;;2.17;;
62582;SDS011;48641;51.676;5.808;2024-01-10T00:52:34;5.18;;;2.08;;
62582;SDS011;48641;51.676;5.808;2024-01-10T00:55:00;4.63;;;2.05;;
62582;SDS011;48641;51.676;5.808;2024-01-10T00:57:25;5.40;;;1.92;;
62582;SDS011;48641;51.676;5.808;2024-01-10T00:59:51;5.95;;;2.17;;
62582;SDS011;48641;51.676;5.808;2024-01-10T01:02:16;5.43;;;2.10;;
62582;SDS011;48641;51.676;5.808;2024-01-10T01:04:42;4.30;;;1.77;;
62582;SDS011;48641;51.676;5.808;2024-01-10T01:07:07;5.32;;;1.80;;
62582;SDS011;48641;51.676;5.808;2024-01-10T01:09:33;5.05;;;2.17;;
62582;SDS011;48641;51.676;5.808;2024-01-10T01:11:59;5.15;;;1.85;;
62582;SDS011;48641;51.676;5.808;2024-01-10T01:14:25;4.63;;;1.80;;
62582;SDS011;48641;51.676;5.808;2024-01-10T01:16:51;5.03;;;2.03;;
62582;SDS011;48641;51.676;5.808;2024-01-10T01:19:16;4.50;;;1.83;;
62582;SDS011;48641;51.676;5.808;2024-01-10T01:21:42;5.18;;;2.00;;
62582;SDS011;48641;51.676;5.808;2024-01-10T01:24:08;4.78;;;1.75;;
62582;SDS011;48641;51.676;5.808;2024-01-10T01:26:33;5.13;;;1.95;;
62582;SDS011;48641;51.676;5.808;2024-01-10T01:28:59;4.93;;;1.90;;
62582;SDS011;48641;51.676;5.808;2024-01-10T01:31:25;5.03;;;1.90;;
62582;SDS011;48641;51.676;5.808;2024-01-10T01:33:50;4.25;;;1.60;;
62582;SDS011;48641;51.676;5.808;2024-01-10T01:36:16;4.78;;;1.67;;
62582;SDS011;48641;51.676;5.808;2024-01-10T01:38:42;4.63;;;1.77;;
62582;SDS011;48641;51.676;5.808;2024-01-10T01:41:07;4.22;;;1.77;;
62582;SDS011;48641;51.676;5.808;2024-01-10T01:43:33;4.43;;;1.60;;
62582;SDS011;48641;51.676;5.808;2024-01-10T01:46:00;4.65;;;1.58;;
62582;SDS011;48641;51.676;5.808;2024-01-10T01:48:26;4.95;;;1.75;;
62582;SDS011;48641;51.676;5.808;2024-01-10T01:50:53;3.35;;;1.30;;
62582;SDS011;48641;51.676;5.808;2024-01-10T01:55:47;5.78;;;1.90;;
62582;SDS011;48641;51.676;5.808;2024-01-10T01:58:13;4.82;;;1.77;;
62582;SDS011;48641;51.676;5.808;2024-01-10T02:00:40;5.15;;;1.80;;
62582;SDS011;48641;51.676;5.808;2024-01-10T02:03:06;4.78;;;1.73;;
62582;SDS011;48641;51.676;5.808;2024-01-10T02:05:33;4.40;;;1.75;;
62582;SDS011;48641;51.676;5.808;2024-01-10T02:07:59;4.22;;;1.65;;
62582;SDS011;48641;51.676;5.808;2024-01-10T02:10:24;4.35;;;1.60;;
62582;SDS011;48641;51.676;5.808;2024-01-10T02:12:50;5.32;;;1.77;;
62582;SDS011;48641;51.676;5.808;2024-01-10T02:15:15;5.28;;;1.88;;
62582;SDS011;48641;51.676;5.808;2024-01-10T02:17:45;4.68;;;1.65;;
62582;SDS011;48641;51.676;5.808;2024-01-10T02:20:11;4.28;;;1.52;;
62582;SDS011;48641;51.676;5.808;2024-01-10T02:22:37;4.00;;;1.50;;
62582;SDS011;48641;51.676;5.808;2024-01-10T02:25:04;4.60;;;1.70;;
62582;SDS011;48641;51.676;5.808;2024-01-10T02:27:32;6.88;;;1.60;;
62582;SDS011;48641;51.676;5.808;2024-01-10T02:29:58;4.70;;;1.85;;
62582;SDS011;48641;51.676;5.808;2024-01-10T02:32:26;4.80;;;1.55;;
62582;SDS011;48641;51.676;5.808;2024-01-10T02:34:51;5.00;;;1.63;;
62582;SDS011;48641;51.676;5.808;2024-01-10T02:37:17;4.22;;;1.63;;
62582;SDS011;48641;51.676;5.808;2024-01-10T02:39:43;4.50;;;1.50;;
62582;SDS011;48641;51.676;5.808;2024-01-10T02:42:08;4.25;;;1.42;;
62582;SDS011;48641;51.676;5.808;2024-01-10T02:44:34;3.60;;;1.50;;
62582;SDS011;48641;51.676;5.808;2024-01-10T02:46:59;4.47;;;1.60;;
62582;SDS011;48641;51.676;5.808;2024-01-10T02:49:25;4.18;;;1.60;;
62582;SDS011;48641;51.676;5.808;2024-01-10T02:51:50;3.60;;;1.38;;
62582;SDS011;48641;51.676;5.808;2024-01-10T02:54:16;3.70;;;1.50;;
62582;SDS011;48641;51.676;5.808;2024-01-10T02:56:41;4.25;;;1.63;;
62582;SDS011;48641;51.676;5.808;2024-01-10T02:59:07;4.18;;;1.67;;
62582;SDS011;48641;51.676;5.808;2024-01-10T03:01:32;4.45;;;1.65;;
62582;SDS011;48641;51.676;5.808;2024-01-10T03:03:58;4.50;;;1.45;;
62582;SDS011;48641;51.676;5.808;2024-01-10T03:06:24;5.35;;;1.90;;
62582;SDS011;48641;51.676;5.808;2024-01-10T03:08:50;4.05;;;1.55;;
62582;SDS011;48641;51.676;5.808;2024-01-10T03:11:16;4.22;;;1.58;;
62582;SDS011;48641;51.676;5.808;2024-01-10T03:13:43;4.47;;;1.40;;
62582;SDS011;48641;51.676;5.808;2024-01-10T03:16:10;3.55;;;1.48;;
62582;SDS011;48641;51.676;5.808;2024-01-10T03:18:36;4.60;;;1.70;;
62582;SDS011;48641;51.676;5.808;2024-01-10T03:21:01;5.47;;;1.77;;
62582;SDS011;48641;51.676;5.808;2024-01-10T03:23:27;4.55;;;1.58;;
62582;SDS011;48641;51.676;5.808;2024-01-10T03:25:53;4.50;;;1.60;;
62582;SDS011;48641;51.676;5.808;2024-01-10T03:28:18;5.00;;;1.60;;
62582;SDS011;48641;51.676;5.808;2024-01-10T03:30:44;3.90;;;1.50;;
62582;SDS011;48641;51.676;5.808;2024-01-10T03:33:10;5.63;;;1.85;;
62582;SDS011;48641;51.676;5.808;2024-01-10T03:35:36;3.95;;;1.35;;
62582;SDS011;48641;51.676;5.808;2024-01-10T03:38:02;5.28;;;1.40;;
62582;SDS011;48641;51.676;5.808;2024-01-10T03:40:27;4.68;;;1.52;;
62582;SDS011;48641;51.676;5.808;2024-01-10T03:42:53;5.20;;;1.58;;
62582;SDS011;48641;51.676;5.808;2024-01-10T03:45:18;4.47;;;1.60;;
62582;SDS011;48641;51.676;5.808;2024-01-10T03:47:47;5.10;;;1.60;;
62582;SDS011;48641;51.676;5.808;2024-01-10T03:50:18;3.45;;;1.38;;
62582;SDS011;48641;51.676;5.808;2024-01-10T03:52:44;5.30;;;1.70;;
62582;SDS011;48641;51.676;5.808;2024-01-10T03:55:11;4.78;;;1.48;;
62582;SDS011;48641;51.676;5.808;2024-01-10T03:57:40;5.43;;;1.63;;
62582;SDS011;48641;51.676;5.808;2024-01-10T04:00:07;4.22;;;1.50;;
62582;SDS011;48641;51.676;5.808;2024-01-10T04:02:33;5.25;;;1.50;;
62582;SDS011;48641;51.676;5.808;2024-01-10T04:05:01;5.07;;;1.67;;
62582;SDS011;48641;51.676;5.808;2024-01-10T04:07:27;4.45;;;1.50;;
62582;SDS011;48641;51.676;5.808;2024-01-10T04:09:53;4.03;;;1.38;;
62582;SDS011;48641;51.676;5.808;2024-01-10T04:12:18;3.50;;;1.50;;
62582;SDS011;48641;51.676;5.808;2024-01-10T04:14:44;4.15;;;1.40;;
62582;SDS011;48641;51.676;5.808;2024-01-10T04:17:09;4.15;;;1.50;;
62582;SDS011;48641;51.676;5.808;2024-01-10T04:19:35;4.85;;;1.70;;
62582;SDS011;48641;51.676;5.808;2024-01-10T04:22:01;4.22;;;1.55;;
62582;SDS011;48641;51.676;5.808;2024-01-10T04:24:27;3.45;;;1.30;;
62582;SDS011;48641;51.676;5.808;2024-01-10T04:26:52;3.70;;;1.38;;
62582;SDS011;48641;51.676;5.808;2024-01-10T04:29:18;4.55;;;1.55;;
62582;SDS011;48641;51.676;5.808;2024-01-10T04:31:43;4.75;;;1.50;;
62582;SDS011;48641;51.676;5.808;2024-01-10T04:34:09;4.35;;;1.52;;
62582;SDS011;48641;51.676;5.808;2024-01-10T04:36:34;5.00;;;1.50;;
62582;SDS011;48641;51.676;5.808;2024-01-10T04:39:00;5.00;;;1.70;;
62582;SDS011;48641;51.676;5.808;2024-01-10T04:41:26;5.63;;;1.48;;
62582;SDS011;48641;51.676;5.808;2024-01-10T04:43:51;4.28;;;1.50;;
62582;SDS011;48641;51.676;5.808;2024-01-10T04:46:17;4.50;;;1.73;;
62582;SDS011;48641;51.676;5.808;2024-01-10T04:48:43;4.63;;;1.50;;
62582;SDS011;48641;51.676;5.808;2024-01-10T04:51:08;3.95;;;1.40;;
62582;SDS011;48641;51.676;5.808;2024-01-10T04:53:34;4.07;;;1.35;;
62582;SDS011;48641;51.676;5.808;2024-01-10T04:56:00;4.43;;;1.70;;
62582;SDS011;48641;51.676;5.808;2024-01-10T04:58:25;5.05;;;1.50;;
62582;SDS011;48641;51.676;5.808;2024-01-10T05:00:51;4.22;;;1.50;;
62582;SDS011;48641;51.676;5.808;2024-01-10T05:03:17;4.55;;;1.67;;
62582;SDS011;48641;51.676;5.808;2024-01-10T05:05:43;4.18;;;1.30;;
62582;SDS011;48641;51.676;5.808;2024-01-10T05:08:08;4.53;;;1.60;;
62582;SDS011;48641;51.676;5.808;2024-01-10T05:10:34;4.20;;;1.60;;
62582;SDS011;48641;51.676;5.808;2024-01-10T05:12:59;5.53;;;1.60;;
62582;SDS011;48641;51.676;5.808;2024-01-10T05:15:25;3.58;;;1.42;;
62582;SDS011;48641;51.676;5.808;2024-01-10T05:17:51;4.38;;;1.70;;
62582;SDS011;48641;51.676;5.808;2024-01-10T05:20:17;4.25;;;1.50;;
62582;SDS011;48641;51.676;5.808;2024-01-10T05:22:43;4.82;;;1.50;;
62582;SDS011;48641;51.676;5.808;2024-01-10T05:25:09;4.35;;;1.23;;
62582;SDS011;48641;51.676;5.808;2024-01-10T05:27:35;4.85;;;1.60;;
62582;SDS011;48641;51.676;5.808;2024-01-10T05:30:01;3.88;;;1.42;;
62582;SDS011;48641;51.676;5.808;2024-01-10T05:32:26;3.83;;;1.17;;
62582;SDS011;48641;51.676;5.808;2024-01-10T05:34:53;5.28;;;1.60;;
62582;SDS011;48641;51.676;5.808;2024-01-10T05:37:19;4.65;;;1.40;;
62582;SDS011;48641;51.676;5.808;2024-01-10T05:39:44;4.78;;;1.42;;
62582;SDS011;48641;51.676;5.808;2024-01-10T05:42:10;3.78;;;1.30;;
62582;SDS011;48641;51.676;5.808;2024-01-10T05:44:36;3.90;;;1.50;;
62582;SDS011;48641;51.676;5.808;2024-01-10T05:47:01;5.03;;;1.67;;
62582;SDS011;48641;51.676;5.808;2024-01-10T05:49:27;5.05;;;1.60;;
62582;SDS011;48641;51.676;5.808;2024-01-10T05:51:53;4.63;;;1.63;;
62582;SDS011;48641;51.676;5.808;2024-01-10T05:54:19;6.30;;;1.80;;
62582;SDS011;48641;51.676;5.808;2024-01-10T05:56:45;6.05;;;1.85;;
62582;SDS011;48641;51.676;5.808;2024-01-10T05:59:10;4.60;;;1.63;;
62582;SDS011;48641;51.676;5.808;2024-01-10T06:01:36;6.55;;;1.85;;
62582;SDS011;48641;51.676;5.808;2024-01-10T06:04:03;4.05;;;1.42;;
62582;SDS011;48641;51.676;5.808;2024-01-10T06:06:30;3.35;;;1.40;;
62582;SDS011;48641;51.676;5.808;2024-01-10T06:08:57;5.50;;;1.60;;
62582;SDS011;48641;51.676;5.808;2024-01-10T06:11:23;4.47;;;2.13;;
62582;SDS011;48641;51.676;5.808;2024-01-10T06:13:48;4.45;;;1.80;;
62582;SDS011;48641;51.676;5.808;2024-01-10T06:16:14;4.28;;;1.50;;
62582;SDS011;48641;51.676;5.808;2024-01-10T06:18:40;5.95;;;1.85;;
62582;SDS011;48641;51.676;5.808;2024-01-10T06:21:05;4.20;;;1.70;;
62582;SDS011;48641;51.676;5.808;2024-01-10T06:23:31;6.03;;;1.70;;
62582;SDS011;48641;51.676;5.808;2024-01-10T06:25:56;8.05;;;1.85;;
62582;SDS011;48641;51.676;5.808;2024-01-10T06:28:22;5.55;;;1.80;;
62582;SDS011;48641;51.676;5.808;2024-01-10T06:30:48;7.10;;;1.70;;
62582;SDS011;48641;51.676;5.808;2024-01-10T06:33:14;4.65;;;1.58;;
62582;SDS011;48641;51.676;5.808;2024-01-10T06:35:41;5.28;;;1.60;;
62582;SDS011;48641;51.676;5.808;2024-01-10T06:40:35;4.65;;;1.73;;
62582;SDS011;48641;51.676;5.808;2024-01-10T06:43:02;6.18;;;1.80;;
62582;SDS011;48641;51.676;5.808;2024-01-10T06:45:28;4.53;;;1.48;;
62582;SDS011;48641;51.676;5.808;2024-01-10T06:47:54;4.55;;;1.30;;
62582;SDS011;48641;51.676;5.808;2024-01-10T06:50:20;5.78;;;1.90;;
62582;SDS011;48641;51.676;5.808;2024-01-10T06:52:46;5.43;;;1.95;;
62582;SDS011;48641;51.676;5.808;2024-01-10T06:55:13;5.78;;;2.00;;
62582;SDS011;48641;51.676;5.808;2024-01-10T06:57:38;5.57;;;1.67;;
62582;SDS011;48641;51.676;5.808;2024-01-10T07:00:05;3.40;;;1.30;;
62582;SDS011;48641;51.676;5.808;2024-01-10T07:02:35;3.95;;;1.50;;
62582;SDS011;48641;51.676;5.808;2024-01-10T07:05:02;4.38;;;1.65;;
62582;SDS011;48641;51.676;5.808;2024-01-10T07:07:30;4.60;;;1.80;;
62582;SDS011;48641;51.676;5.808;2024-01-10T07:09:55;4.40;;;1.70;;
62582;SDS011;48641;51.676;5.808;2024-01-10T07:12:21;5.65;;;1.90;;
62582;SDS011;48641;51.676;5.808;2024-01-10T07:14:46;3.78;;;1.52;;
62582;SDS011;48641;51.676;5.808;2024-01-10T07:17:12;5.75;;;1.98;;
62582;SDS011;48641;51.676;5.808;2024-01-10T07:19:37;5.63;;;1.80;;
62582;SDS011;48641;51.676;5.808;2024-01-10T07:22:03;4.70;;;1.60;;
62582;SDS011;48641;51.676;5.808;2024-01-10T07:24:29;5.40;;;1.80;;
62582;SDS011;48641;51.676;5.808;2024-01-10T07:26:55;5.55;;;1.90;;
62582;SDS011;48641;51.676;5.808;2024-01-10T07:29:22;4.15;;;1.52;;
62582;SDS011;48641;51.676;5.808;2024-01-10T07:31:47;4.07;;;1.50;;
62582;SDS011;48641;51.676;5.808;2024-01-10T07:34:13;5.18;;;1.92;;
62582;SDS011;48641;51.676;5.808;2024-01-10T07:36:42;4.20;;;1.70;;
62582;SDS011;48641;51.676;5.808;2024-01-10T07:39:08;5.88;;;1.85;;
62582;SDS011;48641;51.676;5.808;2024-01-10T07:41:34;5.07;;;1.67;;
62582;SDS011;48641;51.676;5.808;2024-01-10T07:43:59;6.47;;;1.73;;
62582;SDS011;48641;51.676;5.808;2024-01-10T07:46:25;4.97;;;1.90;;
62582;SDS011;48641;51.676;5.808;2024-01-10T07:48:52;4.80;;;1.60;;
62582;SDS011;48641;51.676;5.808;2024-01-10T07:51:18;5.47;;;1.90;;
62582;SDS011;48641;51.676;5.808;2024-01-10T07:53:44;5.55;;;2.00;;
62582;SDS011;48641;51.676;5.808;2024-01-10T07:56:10;6.13;;;1.80;;
62582;SDS011;48641;51.676;5.808;2024-01-10T07:58:37;11.82;;;2.25;;
62582;SDS011;48641;51.676;5.808;2024-01-10T08:01:03;12.20;;;2.10;;
62582;SDS011;48641;51.676;5.808;2024-01-10T08:03:29;10.95;;;2.25;;
62582;SDS011;48641;51.676;5.808;2024-01-10T08:05:55;11.02;;;2.45;;
62582;SDS011;48641;51.676;5.808;2024-01-10T08:08:20;13.40;;;3.10;;
62582;SDS011;48641;51.676;5.808;2024-01-10T08:10:46;9.80;;;2.30;;
62582;SDS011;48641;51.676;5.808;2024-01-10T08:13:11;8.32;;;2.20;;
62582;SDS011;48641;51.676;5.808;2024-01-10T08:15:37;10.93;;;2.10;;
62582;SDS011;48641;51.676;5.808;2024-01-10T08:18:02;10.60;;;2.20;;
62582;SDS011;48641;51.676;5.808;2024-01-10T08:20:28;10.75;;;1.83;;
62582;SDS011;48641;51.676;5.808;2024-01-10T08:22:54;11.82;;;2.08;;
62582;SDS011;48641;51.676;5.808;2024-01-10T08:25:20;6.80;;;1.90;;
62582;SDS011;48641;51.676;5.808;2024-01-10T08:27:46;11.88;;;2.28;;
62582;SDS011;48641;51.676;5.808;2024-01-10T08:30:12;7.28;;;1.92;;
62582;SDS011;48641;51.676;5.808;2024-01-10T08:32:37;7.82;;;1.88;;
62582;SDS011;48641;51.676;5.808;2024-01-10T08:35:03;8.32;;;2.10;;
62582;SDS011;48641;51.676;5.808;2024-01-10T08:37:30;5.80;;;2.22;;
62582;SDS011;48641;51.676;5.808;2024-01-10T08:39:58;6.47;;;2.03;;
62582;SDS011;48641;51.676;5.808;2024-01-10T08:42:25;9.45;;;2.35;;
62582;SDS011;48641;51.676;5.808;2024-01-10T08:44:51;9.85;;;2.25;;
62582;SDS011;48641;51.676;5.808;2024-01-10T08:47:16;7.75;;;2.10;;
62582;SDS011;48641;51.676;5.808;2024-01-10T08:49:42;7.15;;;1.92;;
62582;SDS011;48641;51.676;5.808;2024-01-10T08:52:07;5.97;;;1.70;;
62582;SDS011;48641;51.676;5.808;2024-01-10T08:54:33;8.05;;;2.03;;
62582;SDS011;48641;51.676;5.808;2024-01-10T08:56:59;6.60;;;1.95;;
62582;SDS011;48641;51.676;5.808;2024-01-10T08:59:25;5.75;;;2.10;;
62582;SDS011;48641;51.676;5.808;2024-01-10T09:01:53;6.22;;;2.13;;
62582;SDS011;48641;51.676;5.808;2024-01-10T09:04:18;5.93;;;2.20;;
62582;SDS011;48641;51.676;5.808;2024-01-10T09:06:45;5.50;;;1.88;;
62582;SDS011;48641;51.676;5.808;2024-01-10T09:09:10;6.82;;;1.90;;
62582;SDS011;48641;51.676;5.808;2024-01-10T09:11:38;6.43;;;2.25;;
62582;SDS011;48641;51.676;5.808;2024-01-10T09:14:03;7.60;;;2.35;;
62582;SDS011;48641;51.676;5.808;2024-01-10T09:16:29;5.05;;;1.75;;
62582;SDS011;48641;51.676;5.808;2024-01-10T09:18:54;6.28;;;2.10;;
62582;SDS011;48641;51.676;5.808;2024-01-10T09:21:22;7.60;;;2.30;;
62582;SDS011;48641;51.676;5.808;2024-01-10T09:23:48;5.80;;;1.83;;
62582;SDS011;48641;51.676;5.808;2024-01-10T09:26:16;6.47;;;1.90;;
62582;SDS011;48641;51.676;5.808;2024-01-10T09:28:42;7.85;;;2.10;;
62582;SDS011;48641;51.676;5.808;2024-01-10T09:31:08;8.25;;;2.10;;
62582;SDS011;48641;51.676;5.808;2024-01-10T09:33:34;6.60;;;2.00;;
62582;SDS011;48641;51.676;5.808;2024-01-10T09:36:00;6.55;;;2.30;;
62582;SDS011;48641;51.676;5.808;2024-01-10T09:38:25;5.50;;;2.05;;
62582;SDS011;48641;51.676;5.808;2024-01-10T09:40:52;6.85;;;1.90;;
62582;SDS011;48641;51.676;5.808;2024-01-10T09:43:26;6.13;;;2.08;;
62582;SDS011;48641;51.676;5.808;2024-01-10T09:45:52;4.90;;;1.90;;
62582;SDS011;48641;51.676;5.808;2024-01-10T09:48:19;5.97;;;2.38;;
62582;SDS011;48641;51.676;5.808;2024-01-10T09:50:45;6.35;;;2.38;;
62582;SDS011;48641;51.676;5.808;2024-01-10T09:53:18;5.85;;;2.17;;
62582;SDS011;48641;51.676;5.808;2024-01-10T09:55:51;5.95;;;2.40;;
62582;SDS011;48641;51.676;5.808;2024-01-10T09:58:21;5.70;;;2.28;;
62582;SDS011;48641;51.676;5.808;2024-01-10T10:00:50;6.50;;;2.40;;
62582;SDS011;48641;51.676;5.808;2024-01-10T10:03:15;6.57;;;1.92;;
62582;SDS011;48641;51.676;5.808;2024-01-10T10:05:46;7.03;;;2.20;;
62582;SDS011;48641;51.676;5.808;2024-01-10T10:08:12;6.25;;;2.00;;
62582;SDS011;48641;51.676;5.808;2024-01-10T10:10:48;6.13;;;2.13;;
62582;SDS011;48641;51.676;5.808;2024-01-10T10:13:27;5.93;;;2.25;;
62582;SDS011;48641;51.676;5.808;2024-01-10T10:15:57;5.78;;;2.08;;
62582;SDS011;48641;51.676;5.808;2024-01-10T10:18:23;6.18;;;2.15;;
62582;SDS011;48641;51.676;5.808;2024-01-10T10:20:49;5.50;;;2.08;;
62582;SDS011;48641;51.676;5.808;2024-01-10T10:23:35;6.93;;;2.40;;
62582;SDS011;48641;51.676;5.808;2024-01-10T10:26:17;5.63;;;2.15;;
62582;SDS011;48641;51.676;5.808;2024-01-10T10:28:47;7.75;;;2.70;;
62582;SDS011;48641;51.676;5.808;2024-01-10T10:31:13;5.70;;;2.10;;
62582;SDS011;48641;51.676;5.808;2024-01-10T10:33:40;6.40;;;2.22;;
62582;SDS011;48641;51.676;5.808;2024-01-10T10:36:06;6.65;;;2.42;;
62582;SDS011;48641;51.676;5.808;2024-01-10T10:39:59;13.98;;;3.50;;
62582;SDS011;48641;51.676;5.808;2024-01-10T10:42:24;10.73;;;3.70;;
62582;SDS011;48641;51.676;5.808;2024-01-10T10:44:53;10.60;;;3.67;;
62582;SDS011;48641;51.676;5.808;2024-01-10T10:49:13;14.52;;;7.38;;
62582;SDS011;48641;51.676;5.808;2024-01-10T10:51:42;12.88;;;6.05;;
62582;SDS011;48641;51.676;5.808;2024-01-10T10:54:08;11.25;;;4.22;;
62582;SDS011;48641;51.676;5.808;2024-01-10T10:59:03;8.77;;;3.22;;
62582;SDS011;48641;51.676;5.808;2024-01-10T11:01:31;12.60;;;6.72;;
62582;SDS011;48641;51.676;5.808;2024-01-10T11:03:57;11.48;;;6.05;;
62582;SDS011;48641;51.676;5.808;2024-01-10T11:06:23;13.63;;;7.07;;
62582;SDS011;48641;51.676;5.808;2024-01-10T11:09:07;12.68;;;6.28;;
62582;SDS011;48641;51.676;5.808;2024-01-10T11:14:43;13.00;;;5.82;;
62582;SDS011;48641;51.676;5.808;2024-01-10T11:20:14;11.02;;;4.13;;
62582;SDS011;48641;51.676;5.808;2024-01-10T11:25:29;13.13;;;5.93;;
62582;SDS011;48641;51.676;5.808;2024-01-10T11:27:55;12.77;;;6.35;;
62582;SDS011;48641;51.676;5.808;2024-01-10T11:30:37;12.25;;;6.63;;
62582;SDS011;48641;51.676;5.808;2024-01-10T11:33:32;12.75;;;6.07;;
62582;SDS011;48641;51.676;5.808;2024-01-10T11:36:06;11.30;;;4.75;;
62582;SDS011;48641;51.676;5.808;2024-01-10T11:38:32;10.93;;;5.35;;
62582;SDS011;48641;51.676;5.808;2024-01-10T11:40:58;8.43;;;3.25;;
62582;SDS011;48641;51.676;5.808;2024-01-10T11:43:23;13.65;;;5.75;;
62582;SDS011;48641;51.676;5.808;2024-01-10T11:45:52;10.23;;;4.55;;
62582;SDS011;48641;51.676;5.808;2024-01-10T11:48:26;10.02;;;4.15;;
62582;SDS011;48641;51.676;5.808;2024-01-10T11:50:52;13.88;;;6.13;;
62582;SDS011;48641;51.676;5.808;2024-01-10T11:56:13;14.52;;;6.47;;
62582;SDS011;48641;51.676;5.808;2024-01-10T12:01:42;9.75;;;4.18;;
62582;SDS011;48641;51.676;5.808;2024-01-10T12:04:07;12.05;;;5.22;;
62582;SDS011;48641;51.676;5.808;2024-01-10T12:06:36;11.00;;;4.05;;
62582;SDS011;48641;51.676;5.808;2024-01-10T12:09:03;10.45;;;5.30;;
62582;SDS011;48641;51.676;5.808;2024-01-10T12:11:37;11.32;;;5.25;;
62582;SDS011;48641;51.676;5.808;2024-01-10T12:14:09;11.75;;;5.45;;
62582;SDS011;48641;51.676;5.808;2024-01-10T12:16:35;12.10;;;4.80;;
62582;SDS011;48641;51.676;5.808;2024-01-10T12:19:01;10.93;;;5.28;;
62582;SDS011;48641;51.676;5.808;2024-01-10T12:21:26;13.65;;;7.28;;
62582;SDS011;48641;51.676;5.808;2024-01-10T12:23:52;9.18;;;4.15;;
62582;SDS011;48641;51.676;5.808;2024-01-10T12:26:18;13.85;;;5.50;;
62582;SDS011;48641;51.676;5.808;2024-01-10T12:28:57;14.23;;;6.75;;
62582;SDS011;48641;51.676;5.808;2024-01-10T12:33:50;12.18;;;6.30;;
62582;SDS011;48641;51.676;5.808;2024-01-10T12:36:16;10.60;;;5.53;;
62582;SDS011;48641;51.676;5.808;2024-01-10T12:38:43;13.02;;;6.97;;
62582;SDS011;48641;51.676;5.808;2024-01-10T12:41:11;13.32;;;7.03;;
62582;SDS011;48641;51.676;5.808;2024-01-10T12:43:39;11.38;;;4.93;;
62582;SDS011;48641;51.676;5.808;2024-01-10T12:46:11;12.48;;;6.45;;
62582;SDS011;48641;51.676;5.808;2024-01-10T12:48:40;9.70;;;4.28;;
62582;SDS011;48641;51.676;5.808;2024-01-10T12:51:07;11.70;;;5.82;;
62582;SDS011;48641;51.676;5.808;2024-01-10T12:53:37;13.23;;;6.70;;
62582;SDS011;48641;51.676;5.808;2024-01-10T12:56:04;11.73;;;5.07;;
62582;SDS011;48641;51.676;5.808;2024-01-10T12:58:31;13.23;;;5.85;;
62582;SDS011;48641;51.676;5.808;2024-01-10T13:00:57;8.43;;;3.65;;
62582;SDS011;48641;51.676;5.808;2024-01-10T13:03:23;13.27;;;7.03;;
62582;SDS011;48641;51.676;5.808;2024-01-10T13:05:50;10.68;;;4.70;;
62582;SDS011;48641;51.676;5.808;2024-01-10T13:08:16;13.05;;;6.30;;
62582;SDS011;48641;51.676;5.808;2024-01-10T13:10:44;14.90;;;6.70;;
62582;SDS011;48641;51.676;5.808;2024-01-10T13:13:10;15.65;;;7.32;;
62582;SDS011;48641;51.676;5.808;2024-01-10T13:15:37;14.38;;;7.13;;
62582;SDS011;48641;51.676;5.808;2024-01-10T13:18:02;8.57;;;3.88;;
62582;SDS011;48641;51.676;5.808;2024-01-10T13:20:28;12.52;;;6.25;;
62582;SDS011;48641;51.676;5.808;2024-01-10T13:22:54;11.27;;;5.53;;
62582;SDS011;48641;51.676;5.808;2024-01-10T13:25:19;12.25;;;6.55;;
62582;SDS011;48641;51.676;5.808;2024-01-10T13:27:49;12.55;;;5.95;;
62582;SDS011;48641;51.676;5.808;2024-01-10T13:30:16;10.30;;;4.38;;
62582;SDS011;48641;51.676;5.808;2024-01-10T13:32:42;13.60;;;6.78;;
62582;SDS011;48641;51.676;5.808;2024-01-10T13:35:14;11.00;;;4.47;;
62582;SDS011;48641;51.676;5.808;2024-01-10T13:37:41;13.80;;;7.28;;
62582;SDS011;48641;51.676;5.808;2024-01-10T13:40:08;11.13;;;4.75;;
62582;SDS011;48641;51.676;5.808;2024-01-10T13:42:35;11.57;;;5.32;;
62582;SDS011;48641;51.676;5.808;2024-01-10T13:45:02;9.35;;;4.15;;
62582;SDS011;48641;51.676;5.808;2024-01-10T13:47:30;12.98;;;6.72;;
62582;SDS011;48641;51.676;5.808;2024-01-10T13:49:56;10.50;;;5.93;;
62582;SDS011;48641;51.676;5.808;2024-01-10T13:52:21;10.23;;;5.20;;
62582;SDS011;48641;51.676;5.808;2024-01-10T13:54:47;13.45;;;7.55;;
62582;SDS011;48641;51.676;5.808;2024-01-10T13:57:12;9.50;;;3.60;;
62582;SDS011;48641;51.676;5.808;2024-01-10T13:59:38;12.73;;;6.22;;
62582;SDS011;48641;51.676;5.808;2024-01-10T14:02:04;10.38;;;4.63;;
62582;SDS011;48641;51.676;5.808;2024-01-10T14:04:29;10.77;;;4.85;;
62582;SDS011;48641;51.676;5.808;2024-01-10T14:06:55;11.50;;;4.80;;
62582;SDS011;48641;51.676;5.808;2024-01-10T14:09:20;9.88;;;4.90;;
62582;SDS011;48641;51.676;5.808;2024-01-10T14:11:46;13.63;;;6.05;;
62582;SDS011;48641;51.676;5.808;2024-01-10T14:14:14;13.32;;;7.22;;
62582;SDS011;48641;51.676;5.808;2024-01-10T14:16:40;12.43;;;5.78;;
62582;SDS011;48641;51.676;5.808;2024-01-10T14:19:06;12.07;;;6.28;;
62582;SDS011;48641;51.676;5.808;2024-01-10T14:21:32;10.13;;;3.92;;
62582;SDS011;48641;51.676;5.808;2024-01-10T14:24:00;13.32;;;6.57;;
62582;SDS011;48641;51.676;5.808;2024-01-10T14:26:26;12.52;;;5.82;;
62582;SDS011;48641;51.676;5.808;2024-01-10T14:28:52;12.60;;;6.88;;
62582;SDS011;48641;51.676;5.808;2024-01-10T14:31:20;12.75;;;6.90;;
62582;SDS011;48641;51.676;5.808;2024-01-10T14:33:46;12.30;;;6.28;;
62582;SDS011;48641;51.676;5.808;2024-01-10T14:36:12;12.05;;;6.22;;
62582;SDS011;48641;51.676;5.808;2024-01-10T14:38:38;13.40;;;6.93;;
62582;SDS011;48641;51.676;5.808;2024-01-10T14:41:04;11.60;;;5.20;;
62582;SDS011;48641;51.676;5.808;2024-01-10T14:43:31;9.90;;;4.43;;
62582;SDS011;48641;51.676;5.808;2024-01-10T14:46:03;12.15;;;5.95;;
62582;SDS011;48641;51.676;5.808;2024-01-10T14:48:30;12.25;;;6.35;;
62582;SDS011;48641;51.676;5.808;2024-01-10T14:51:00;11.32;;;6.00;;
62582;SDS011;48641;51.676;5.808;2024-01-10T14:53:26;9.23;;;4.15;;
62582;SDS011;48641;51.676;5.808;2024-01-10T14:55:52;9.43;;;4.68;;
62582;SDS011;48641;51.676;5.808;2024-01-10T14:58:18;12.65;;;7.18;;
62582;SDS011;48641;51.676;5.808;2024-01-10T15:00:44;9.38;;;4.55;;
62582;SDS011;48641;51.676;5.808;2024-01-10T15:03:09;8.63;;;3.97;;
62582;SDS011;48641;51.676;5.808;2024-01-10T15:05:35;11.75;;;5.95;;
62582;SDS011;48641;51.676;5.808;2024-01-10T15:08:02;12.52;;;5.20;;